createdAt,value
2022-12-07T00:02:45.351Z,6.61
2022-12-07T00:07:01.516Z,6.83
2022-12-07T00:11:23.359Z,6.68
2022-12-07T00:15:39.467Z,6.89
2022-12-07T00:19:55.565Z,6.61
2022-12-07T00:24:14.986Z,6.49
2022-12-07T00:28:31.167Z,6.50
2022-12-07T00:32:47.339Z,6.52
2022-12-07T00:37:03.547Z,6.52
2022-12-07T00:41:22.732Z,6.41
2022-12-07T00:45:38.961Z,6.49
2022-12-07T00:49:55.197Z,6.80
2022-12-07T00:54:11.438Z,6.37
2022-12-07T00:58:27.669Z,6.83
2022-12-07T01:02:43.859Z,6.53
2022-12-07T01:07:00.097Z,6.66
2022-12-07T01:11:18.961Z,6.67
2022-12-07T01:15:35.074Z,6.70
2022-12-07T01:19:51.173Z,6.53
2022-12-07T01:24:10.529Z,6.55
2022-12-07T01:28:26.873Z,6.72
2022-12-07T01:32:43.105Z,6.67
2022-12-07T01:36:59.332Z,6.66
2022-12-07T01:41:15.896Z,6.69
2022-12-07T01:45:42.489Z,6.56
2022-12-07T01:49:58.968Z,6.56
2022-12-07T01:54:15.772Z,6.67
2022-12-07T01:58:32.061Z,6.70
2022-12-07T02:02:56.650Z,6.54
2022-12-07T02:07:13.152Z,6.46
2022-12-07T02:11:29.377Z,6.56
2022-12-07T02:16:00.699Z,6.64
2022-12-07T02:20:29.739Z,6.53
2022-12-07T02:25:06.992Z,6.68
2022-12-07T02:29:55.616Z,6.82
2022-12-07T02:34:16.748Z,6.74
2022-12-07T02:38:43.375Z,6.66
2022-12-07T02:43:08.017Z,6.59
2022-12-07T02:47:26.128Z,6.74
2022-12-07T02:51:44.697Z,6.86
2022-12-07T02:56:21.594Z,6.45
2022-12-07T03:00:47.830Z,6.60
2022-12-07T03:05:14.095Z,6.79
2022-12-07T03:09:56.427Z,6.64
2022-12-07T03:14:28.416Z,6.75
2022-12-07T03:18:50.257Z,6.60
2022-12-07T03:23:10.579Z,6.76
2022-12-07T03:27:49.920Z,6.60
2022-12-07T03:32:30.408Z,6.42
2022-12-07T03:37:11.377Z,6.49
2022-12-07T03:41:30.877Z,6.52
2022-12-07T03:46:02.153Z,6.50
2022-12-07T03:50:32.211Z,6.58
2022-12-07T03:55:06.428Z,6.58
2022-12-07T03:59:23.242Z,6.35
2022-12-07T04:03:39.431Z,6.39
2022-12-07T04:07:55.657Z,6.51
2022-12-07T04:12:11.789Z,6.46
2022-12-07T04:16:28.079Z,6.50
2022-12-07T04:20:44.314Z,6.44
2022-12-07T04:25:00.391Z,6.65
2022-12-07T04:29:17.040Z,6.73
2022-12-07T04:33:33.184Z,6.52
2022-12-07T04:37:49.323Z,6.55
2022-12-07T04:42:05.650Z,6.42
2022-12-07T04:46:22.069Z,6.46
2022-12-07T04:50:44.521Z,6.32
2022-12-07T04:55:02.332Z,6.33
2022-12-07T04:59:18.850Z,6.54
2022-12-07T05:03:35.072Z,6.69
2022-12-07T05:07:51.461Z,6.68
2022-12-07T05:12:07.670Z,6.56
2022-12-07T05:16:23.992Z,6.67
2022-12-07T05:20:42.805Z,6.56
2022-12-07T05:24:59.115Z,6.47
2022-12-07T05:29:16.886Z,6.75
2022-12-07T05:33:33.078Z,6.62
2022-12-07T05:37:49.354Z,6.75
2022-12-07T05:42:15.213Z,6.53
2022-12-07T05:46:31.694Z,6.51
2022-12-07T05:50:50.542Z,6.64
2022-12-07T05:55:08.239Z,6.53
2022-12-07T05:59:24.665Z,6.48
2022-12-07T06:03:40.897Z,6.44
2022-12-07T06:08:00.257Z,6.34
2022-12-07T06:12:35.494Z,6.57
2022-12-07T06:16:51.800Z,6.69
2022-12-07T06:21:07.999Z,6.18
2022-12-07T06:25:24.213Z,6.52
2022-12-07T06:29:40.449Z,6.33
2022-12-07T06:34:04.731Z,6.48
2022-12-07T06:38:23.655Z,6.10
2022-12-07T06:42:39.867Z,6.05
2022-12-07T06:47:18.968Z,5.80
2022-12-07T06:51:33.428Z,5.60
2022-12-07T06:55:49.648Z,5.78
2022-12-07T07:00:06.833Z,5.14
2022-12-07T07:04:23.157Z,5.15
2022-12-07T07:08:39.933Z,5.35
2022-12-07T07:12:59.068Z,5.48
2022-12-07T07:17:15.354Z,5.22
2022-12-07T07:21:31.563Z,5.68
2022-12-07T07:25:47.939Z,5.24
2022-12-07T07:30:04.955Z,5.39
2022-12-07T07:34:21.388Z,5.82
2022-12-07T07:38:37.583Z,6.05
2022-12-07T07:42:54.998Z,6.00
2022-12-07T07:47:11.304Z,6.12
2022-12-07T07:51:29.576Z,6.08
2022-12-07T07:55:57.672Z,5.93
2022-12-07T08:00:15.511Z,5.59
2022-12-07T08:04:33.818Z,5.39
2022-12-07T08:08:49.985Z,6.01
2022-12-07T08:13:11.952Z,5.77
2022-12-07T08:17:30.314Z,5.83
2022-12-07T08:21:46.503Z,6.21
2022-12-07T08:26:07.349Z,5.72
2022-12-07T08:30:23.827Z,6.31
2022-12-07T08:34:40.055Z,6.08
2022-12-07T08:39:29.930Z,5.36
2022-12-07T08:43:32.836Z,6.37
2022-12-07T08:48:27.537Z,5.99
2022-12-07T08:52:46.061Z,6.56
2022-12-07T08:57:02.269Z,6.49
2022-12-07T09:01:18.460Z,6.56
2022-12-07T09:05:35.375Z,6.89
2022-12-07T09:09:51.510Z,7.10
2022-12-07T09:14:07.645Z,7.28
2022-12-07T09:18:25.832Z,6.92
2022-12-07T09:22:42.127Z,6.90
2022-12-07T09:26:59.192Z,7.41
2022-12-07T09:31:25.911Z,7.56
2022-12-07T09:35:49.575Z,7.42
2022-12-07T09:40:07.046Z,7.56
2022-12-07T09:44:26.769Z,7.66
2022-12-07T09:48:44.147Z,7.45
2022-12-07T09:53:26.095Z,7.18
2022-12-07T09:57:45.084Z,7.24
2022-12-07T10:02:39.205Z,6.97
2022-12-07T10:06:55.301Z,7.11
2022-12-07T10:11:12.338Z,7.06
2022-12-07T10:15:46.892Z,5.92
2022-12-07T10:20:25.522Z,6.73
2022-12-07T10:24:44.010Z,6.71
2022-12-07T10:29:23.901Z,6.20
2022-12-07T10:34:03.715Z,6.35
2022-12-07T10:38:23.797Z,6.51
2022-12-07T10:42:40.059Z,6.95
2022-12-07T10:46:59.477Z,7.28
2022-12-07T10:51:24.795Z,7.59
2022-12-07T10:56:18.854Z,7.60
2022-12-07T11:00:58.286Z,6.88
2022-12-07T11:05:34.358Z,6.96
2022-12-07T11:10:11.713Z,7.17
2022-12-07T11:14:46.935Z,7.27
2022-12-07T11:19:11.220Z,7.87
2022-12-07T11:23:40.103Z,7.26
2022-12-07T11:28:16.529Z,7.59
2022-12-07T11:32:54.175Z,7.83
2022-12-07T11:37:18.188Z,7.61
2022-12-07T11:41:39.950Z,7.68
2022-12-07T11:46:02.894Z,8.72
2022-12-07T11:50:40.594Z,8.71
2022-12-07T11:55:00.742Z,8.89
2022-12-07T11:59:27.224Z,8.77
2022-12-07T12:03:52.525Z,8.56
2022-12-07T12:19:23.008Z,9.96
2022-12-07T12:23:55.635Z,10.03
2022-12-07T12:28:50.508Z,9.10
2022-12-07T12:33:23.820Z,9.31
2022-12-07T12:37:44.896Z,8.48
2022-12-07T12:42:01.600Z,8.58
2022-12-07T12:46:34.752Z,8.52
2022-12-07T12:51:10.746Z,7.90
2022-12-07T12:55:47.996Z,8.26
2022-12-07T13:00:22.385Z,8.43
2022-12-07T13:04:55.868Z,8.10
2022-12-07T13:09:24.642Z,8.19
2022-12-07T13:13:40.712Z,7.57
2022-12-07T13:18:00.013Z,7.71
2022-12-07T13:22:40.273Z,7.46
2022-12-07T13:26:58.761Z,7.88
2022-12-07T13:31:40.779Z,8.91
2022-12-07T13:35:59.863Z,8.99
2022-12-07T13:40:21.609Z,8.50
2022-12-07T13:44:45.035Z,7.09
2022-12-07T13:49:01.173Z,7.22
2022-12-07T13:53:23.760Z,7.51
2022-12-07T13:57:42.195Z,7.30
2022-12-07T14:01:58.527Z,7.03
2022-12-07T14:06:24.242Z,7.98
2022-12-07T14:10:55.827Z,8.05
2022-12-07T14:15:26.763Z,7.15
2022-12-07T14:19:48.586Z,7.28
2022-12-07T14:24:12.528Z,8.75
2022-12-07T14:28:31.030Z,10.21
2022-12-07T14:32:49.858Z,10.45
2022-12-07T14:37:09.253Z,9.20
2022-12-07T14:41:43.761Z,8.25
2022-12-07T14:46:00.139Z,6.95
2022-12-07T14:50:20.087Z,7.05
2022-12-07T14:54:36.267Z,6.55
2022-12-07T14:58:52.574Z,6.48
2022-12-07T15:03:08.825Z,6.59
2022-12-07T15:07:25.086Z,7.11
2022-12-07T15:11:44.731Z,6.51
2022-12-07T15:16:01.396Z,6.92
2022-12-07T15:20:18.199Z,6.51
2022-12-07T15:24:34.887Z,6.03
2022-12-07T15:28:51.074Z,6.50
2022-12-07T15:33:07.584Z,6.56
2022-12-07T15:37:23.741Z,6.24
2022-12-07T15:41:39.945Z,5.95
2022-12-07T15:45:56.382Z,5.93
2022-12-07T15:50:19.444Z,5.96
2022-12-07T15:54:35.629Z,5.52
2022-12-07T15:58:51.823Z,6.22
2022-12-07T16:03:12.085Z,6.38
2022-12-07T16:07:32.447Z,6.34
2022-12-07T16:11:50.598Z,6.28
2022-12-07T16:16:14.291Z,6.17
2022-12-07T16:20:30.487Z,6.18
2022-12-07T16:24:48.663Z,6.29
2022-12-07T16:29:06.924Z,6.28
2022-12-07T16:33:23.065Z,6.13
2022-12-07T16:37:41.606Z,6.18
2022-12-07T16:41:57.681Z,5.95
2022-12-07T16:46:16.441Z,6.06
2022-12-07T16:50:32.807Z,6.08
2022-12-07T16:54:51.886Z,6.25
2022-12-07T16:59:08.687Z,6.28
2022-12-07T17:03:24.843Z,6.35
2022-12-07T17:07:41.111Z,6.15
2022-12-07T17:11:57.392Z,6.10
2022-12-07T17:16:13.712Z,6.02
2022-12-07T17:20:29.923Z,5.73
2022-12-07T17:24:46.010Z,5.68
2022-12-07T17:29:02.339Z,5.60
2022-12-07T17:33:18.510Z,5.61
2022-12-07T17:37:34.866Z,5.53
2022-12-07T17:42:09.448Z,5.26
2022-12-07T17:46:26.098Z,5.53
2022-12-07T17:51:00.547Z,5.46
2022-12-07T17:55:17.499Z,5.31
2022-12-07T17:59:33.770Z,5.56
2022-12-07T18:03:49.917Z,5.61
2022-12-07T18:08:06.834Z,5.45
2022-12-07T18:12:23.080Z,5.61
2022-12-07T18:16:39.282Z,5.54
2022-12-07T18:20:55.487Z,5.38
2022-12-07T18:25:11.591Z,5.38
2022-12-07T18:29:28.261Z,5.17
2022-12-07T18:33:45.580Z,5.01
2022-12-07T18:38:01.847Z,4.65
2022-12-07T18:42:17.953Z,4.97
2022-12-07T18:46:35.627Z,4.99
2022-12-07T18:51:02.862Z,5.16
2022-12-07T18:55:18.941Z,5.29
2022-12-07T18:59:47.056Z,5.35
2022-12-07T19:04:03.651Z,5.52
2022-12-07T19:08:20.005Z,5.25
2022-12-07T19:12:36.559Z,5.18
2022-12-07T19:16:56.109Z,5.14
2022-12-07T19:21:12.303Z,5.07
2022-12-07T19:25:28.472Z,5.03
2022-12-07T19:29:45.280Z,5.05
2022-12-07T19:34:01.369Z,5.03
2022-12-07T19:38:17.459Z,5.22
2022-12-07T19:42:35.870Z,5.36
2022-12-07T19:46:57.327Z,4.99
2022-12-07T19:51:17.288Z,5.00
2022-12-07T19:55:33.473Z,5.03
2022-12-07T19:59:52.017Z,4.88
2022-12-07T20:04:13.930Z,4.95
2022-12-07T20:08:30.654Z,4.81
2022-12-07T20:13:06.066Z,4.70
2022-12-07T20:17:22.454Z,4.86
2022-12-07T20:21:39.300Z,4.58
2022-12-07T20:25:56.192Z,4.62
2022-12-07T20:30:12.616Z,4.43
2022-12-07T20:34:28.914Z,4.65
2022-12-07T20:38:45.928Z,4.53
2022-12-07T20:43:02.139Z,4.32
2022-12-07T20:47:19.011Z,4.55
2022-12-07T20:51:35.404Z,4.49
2022-12-07T20:55:51.555Z,4.50
2022-12-07T21:00:08.639Z,4.38
2022-12-07T21:04:24.807Z,4.72
2022-12-07T21:08:46.490Z,4.68
2022-12-07T21:13:02.667Z,4.56
2022-12-07T21:17:18.817Z,4.52
2022-12-07T21:21:35.205Z,4.46
2022-12-07T21:25:51.435Z,4.56
2022-12-07T21:30:08.110Z,4.64
2022-12-07T21:34:24.359Z,4.51
2022-12-07T21:38:40.535Z,4.67
2022-12-07T21:42:56.680Z,4.84
2022-12-07T21:47:12.766Z,4.65
2022-12-07T21:51:30.459Z,4.47
2022-12-07T21:55:46.823Z,4.74
2022-12-07T22:00:03.039Z,4.62
2022-12-07T22:04:24.637Z,4.46
2022-12-07T22:08:41.830Z,4.38
2022-12-07T22:12:58.960Z,4.65
2022-12-07T22:17:15.054Z,4.64
2022-12-07T22:21:31.745Z,4.43
2022-12-07T22:25:47.851Z,4.43
2022-12-07T22:30:06.163Z,4.19
2022-12-07T22:34:22.764Z,4.37
2022-12-07T22:38:40.360Z,4.13
2022-12-07T22:42:58.153Z,4.30
2022-12-07T22:47:15.025Z,4.01
2022-12-07T22:51:39.507Z,3.95
2022-12-07T22:55:55.677Z,3.84
2022-12-07T23:00:12.493Z,3.38
2022-12-07T23:04:28.936Z,3.67
2022-12-07T23:08:45.472Z,3.62
2022-12-07T23:13:20.273Z,3.82
2022-12-07T23:17:37.042Z,3.31
2022-12-07T23:21:53.452Z,3.39
2022-12-07T23:26:11.781Z,3.58
2022-12-07T23:30:27.917Z,3.58
2022-12-07T23:34:44.749Z,3.71
2022-12-07T23:39:00.990Z,3.65
2022-12-07T23:43:17.133Z,3.65
2022-12-07T23:47:33.299Z,3.55
2022-12-07T23:51:49.440Z,3.31
2022-12-07T23:56:05.955Z,3.52
